sensor_id;sensor_type;location;lat;lon;timestamp;P1;durP1;ratioP1;P2;durP2;ratioP2
33505;SDS011;19843;51.040;13.782;2023-04-15T10:54:31;5.70;;;1.95;;
33505;SDS011;19843;51.040;13.782;2023-04-15T10:57:08;7.53;;;2.30;;
33505;SDS011;19843;51.040;13.782;2023-04-15T10:59:59;9.80;;;2.47;;
33505;SDS011;19843;51.040;13.782;2023-04-15T11:04:53;6.05;;;1.70;;
33505;SDS011;19843;51.040;13.782;2023-04-15T11:07:32;6.68;;;1.75;;
33505;SDS011;19843;51.040;13.782;2023-04-15T11:13:48;4.53;;;2.17;;
33505;SDS011;19843;51.040;13.782;2023-04-15T11:16:16;2.22;;;2.10;;
33505;SDS011;19843;51.040;13.782;2023-04-15T11:18:52;2.30;;;2.20;;
33505;SDS011;19843;51.040;13.782;2023-04-15T11:21:23;2.40;;;2.20;;
33505;SDS011;19843;51.040;13.782;2023-04-15T11:23:52;2.10;;;2.00;;
33505;SDS011;19843;51.040;13.782;2023-04-15T11:26:19;2.60;;;2.40;;
33505;SDS011;19843;51.040;13.782;2023-04-15T11:28:54;2.40;;;2.20;;
33505;SDS011;19843;51.040;13.782;2023-04-15T11:31:22;3.35;;;1.83;;
33505;SDS011;19843;51.040;13.782;2023-04-15T11:33:54;2.00;;;1.90;;
33505;SDS011;19843;51.040;13.782;2023-04-15T11:36:24;2.20;;;2.03;;
33505;SDS011;19843;51.040;13.782;2023-04-15T11:38:56;2.80;;;2.30;;
33505;SDS011;19843;51.040;13.782;2023-04-15T11:41:24;2.22;;;1.77;;
33505;SDS011;19843;51.040;13.782;2023-04-15T11:43:51;1.85;;;1.75;;
33505;SDS011;19843;51.040;13.782;2023-04-15T11:46:20;2.03;;;1.92;;
33505;SDS011;19843;51.040;13.782;2023-04-15T11:48:54;2.08;;;1.98;;
33505;SDS011;19843;51.040;13.782;2023-04-15T11:51:22;2.00;;;1.90;;
33505;SDS011;19843;51.040;13.782;2023-04-15T11:53:49;1.95;;;1.85;;
33505;SDS011;19843;51.040;13.782;2023-04-15T11:56:20;2.47;;;1.80;;
33505;SDS011;19843;51.040;13.782;2023-04-15T11:58:51;1.73;;;1.63;;
33505;SDS011;19843;51.040;13.782;2023-04-15T12:01:20;2.38;;;1.80;;
33505;SDS011;19843;51.040;13.782;2023-04-15T12:03:57;1.73;;;1.63;;
33505;SDS011;19843;51.040;13.782;2023-04-15T12:06:30;2.08;;;1.95;;
33505;SDS011;19843;51.040;13.782;2023-04-15T12:09:02;1.60;;;1.50;;
33505;SDS011;19843;51.040;13.782;2023-04-15T12:11:37;1.80;;;1.70;;
33505;SDS011;19843;51.040;13.782;2023-04-15T12:16:56;1.67;;;1.58;;
33505;SDS011;19843;51.040;13.782;2023-04-15T12:19:26;2.13;;;1.90;;
33505;SDS011;19843;51.040;13.782;2023-04-15T12:21:56;2.25;;;1.30;;
33505;SDS011;19843;51.040;13.782;2023-04-15T12:24:26;1.83;;;1.73;;
33505;SDS011;19843;51.040;13.782;2023-04-15T12:26:54;2.10;;;1.90;;
33505;SDS011;19843;51.040;13.782;2023-04-15T12:29:25;1.67;;;1.58;;
33505;SDS011;19843;51.040;13.782;2023-04-15T12:31:55;3.05;;;1.50;;
33505;SDS011;19843;51.040;13.782;2023-04-15T12:34:27;1.58;;;1.48;;
33505;SDS011;19843;51.040;13.782;2023-04-15T12:36:57;1.80;;;1.70;;
33505;SDS011;19843;51.040;13.782;2023-04-15T12:39:27;2.10;;;1.90;;
33505;SDS011;19843;51.040;13.782;2023-04-15T12:41:56;2.03;;;1.83;;
33505;SDS011;19843;51.040;13.782;2023-04-15T12:44:25;2.50;;;1.70;;
33505;SDS011;19843;51.040;13.782;2023-04-15T12:46:54;2.08;;;1.33;;
33505;SDS011;19843;51.040;13.782;2023-04-15T12:49:23;2.60;;;2.40;;
33505;SDS011;19843;51.040;13.782;2023-04-15T12:51:51;2.42;;;2.08;;
33505;SDS011;19843;51.040;13.782;2023-04-15T12:54:20;2.30;;;2.10;;
33505;SDS011;19843;51.040;13.782;2023-04-15T12:56:48;3.70;;;2.40;;
33505;SDS011;19843;51.040;13.782;2023-04-15T12:59:16;2.13;;;1.92;;
33505;SDS011;19843;51.040;13.782;2023-04-15T13:01:44;1.90;;;1.80;;
33505;SDS011;19843;51.040;13.782;2023-04-15T13:04:14;2.17;;;1.98;;
33505;SDS011;19843;51.040;13.782;2023-04-15T13:06:42;2.10;;;1.98;;
33505;SDS011;19843;51.040;13.782;2023-04-15T13:09:10;2.65;;;1.98;;
33505;SDS011;19843;51.040;13.782;2023-04-15T13:11:37;1.90;;;1.80;;
33505;SDS011;19843;51.040;13.782;2023-04-15T13:14:05;2.08;;;1.90;;
33505;SDS011;19843;51.040;13.782;2023-04-15T13:16:34;2.17;;;1.98;;
33505;SDS011;19843;51.040;13.782;2023-04-15T13:19:02;2.08;;;1.90;;
33505;SDS011;19843;51.040;13.782;2023-04-15T13:21:32;2.08;;;1.88;;
33505;SDS011;19843;51.040;13.782;2023-04-15T13:24:01;2.60;;;2.10;;
33505;SDS011;19843;51.040;13.782;2023-04-15T13:26:29;2.55;;;2.35;;
33505;SDS011;19843;51.040;13.782;2023-04-15T13:28:57;2.47;;;2.28;;
33505;SDS011;19843;51.040;13.782;2023-04-15T13:31:25;2.80;;;2.60;;
33505;SDS011;19843;51.040;13.782;2023-04-15T13:33:53;2.35;;;2.15;;
33505;SDS011;19843;51.040;13.782;2023-04-15T13:36:20;3.83;;;2.58;;
33505;SDS011;19843;51.040;13.782;2023-04-15T13:38:49;3.10;;;1.90;;
33505;SDS011;19843;51.040;13.782;2023-04-15T13:41:17;2.38;;;2.17;;
33505;SDS011;19843;51.040;13.782;2023-04-15T13:43:45;4.55;;;2.50;;
33505;SDS011;19843;51.040;13.782;2023-04-15T13:46:12;2.22;;;2.03;;
33505;SDS011;19843;51.040;13.782;2023-04-15T13:48:40;2.45;;;2.25;;
33505;SDS011;19843;51.040;13.782;2023-04-15T13:51:07;1.90;;;1.80;;
33505;SDS011;19843;51.040;13.782;2023-04-15T13:53:35;2.65;;;2.40;;
33505;SDS011;19843;51.040;13.782;2023-04-15T13:56:06;2.58;;;2.38;;
33505;SDS011;19843;51.040;13.782;2023-04-15T13:58:34;2.20;;;2.03;;
33505;SDS011;19843;51.040;13.782;2023-04-15T14:01:02;2.25;;;2.05;;
33505;SDS011;19843;51.040;13.782;2023-04-15T14:03:33;2.80;;;2.53;;
33505;SDS011;19843;51.040;13.782;2023-04-15T14:06:01;2.25;;;2.03;;
33505;SDS011;19843;51.040;13.782;2023-04-15T14:08:28;4.63;;;2.47;;
33505;SDS011;19843;51.040;13.782;2023-04-15T14:10:56;2.60;;;2.40;;
33505;SDS011;19843;51.040;13.782;2023-04-15T14:13:25;2.92;;;2.72;;
33505;SDS011;19843;51.040;13.782;2023-04-15T14:15:52;2.22;;;2.03;;
33505;SDS011;19843;51.040;13.782;2023-04-15T14:18:19;1.92;;;1.83;;
33505;SDS011;19843;51.040;13.782;2023-04-15T14:20:47;2.35;;;2.15;;
33505;SDS011;19843;51.040;13.782;2023-04-15T14:23:14;1.70;;;1.60;;
33505;SDS011;19843;51.040;13.782;2023-04-15T14:25:42;2.70;;;2.08;;
33505;SDS011;19843;51.040;13.782;2023-04-15T14:28:13;2.45;;;1.92;;
33505;SDS011;19843;51.040;13.782;2023-04-15T14:30:42;2.22;;;1.92;;
33505;SDS011;19843;51.040;13.782;2023-04-15T14:33:11;2.25;;;1.85;;
33505;SDS011;19843;51.040;13.782;2023-04-15T14:35:39;2.22;;;2.03;;
33505;SDS011;19843;51.040;13.782;2023-04-15T14:38:06;2.25;;;2.05;;
33505;SDS011;19843;51.040;13.782;2023-04-15T14:40:36;2.20;;;2.00;;
33505;SDS011;19843;51.040;13.782;2023-04-15T14:43:04;2.60;;;1.90;;
33505;SDS011;19843;51.040;13.782;2023-04-15T14:45:31;2.00;;;1.90;;
33505;SDS011;19843;51.040;13.782;2023-04-15T14:48:00;1.95;;;1.85;;
33505;SDS011;19843;51.040;13.782;2023-04-15T14:50:27;2.50;;;1.60;;
33505;SDS011;19843;51.040;13.782;2023-04-15T14:52:55;2.10;;;1.90;;
33505;SDS011;19843;51.040;13.782;2023-04-15T14:55:22;1.80;;;1.70;;
33505;SDS011;19843;51.040;13.782;2023-04-15T14:57:50;2.40;;;2.05;;
33505;SDS011;19843;51.040;13.782;2023-04-15T15:00:17;2.20;;;2.00;;
33505;SDS011;19843;51.040;13.782;2023-04-15T15:02:45;2.13;;;1.98;;
33505;SDS011;19843;51.040;13.782;2023-04-15T15:05:14;2.50;;;2.10;;
33505;SDS011;19843;51.040;13.782;2023-04-15T15:07:42;1.90;;;1.80;;
33505;SDS011;19843;51.040;13.782;2023-04-15T15:10:09;1.92;;;1.73;;
33505;SDS011;19843;51.040;13.782;2023-04-15T15:12:37;2.05;;;1.92;;
33505;SDS011;19843;51.040;13.782;2023-04-15T15:15:04;2.45;;;1.98;;
33505;SDS011;19843;51.040;13.782;2023-04-15T15:17:52;2.05;;;1.85;;
33505;SDS011;19843;51.040;13.782;2023-04-15T15:20:24;2.13;;;2.00;;
33505;SDS011;19843;51.040;13.782;2023-04-15T15:22:54;1.77;;;1.67;;
33505;SDS011;19843;51.040;13.782;2023-04-15T15:25:21;1.73;;;1.63;;
33505;SDS011;19843;51.040;13.782;2023-04-15T15:27:49;1.83;;;1.67;;
33505;SDS011;19843;51.040;13.782;2023-04-15T15:30:18;2.22;;;1.90;;
33505;SDS011;19843;51.040;13.782;2023-04-15T15:32:46;2.05;;;1.85;;
33505;SDS011;19843;51.040;13.782;2023-04-15T15:35:13;2.00;;;1.80;;
33505;SDS011;19843;51.040;13.782;2023-04-15T15:37:44;1.90;;;1.80;;
33505;SDS011;19843;51.040;13.782;2023-04-15T15:40:11;2.00;;;1.88;;
33505;SDS011;19843;51.040;13.782;2023-04-15T15:42:39;1.98;;;1.77;;
33505;SDS011;19843;51.040;13.782;2023-04-15T15:45:08;2.17;;;2.00;;
33505;SDS011;19843;51.040;13.782;2023-04-15T15:47:36;4.05;;;2.22;;
33505;SDS011;19843;51.040;13.782;2023-04-15T15:50:04;2.08;;;1.88;;
33505;SDS011;19843;51.040;13.782;2023-04-15T15:52:32;2.45;;;2.03;;
33505;SDS011;19843;51.040;13.782;2023-04-15T15:55:01;2.13;;;1.67;;
33505;SDS011;19843;51.040;13.782;2023-04-15T15:57:30;1.73;;;1.63;;
33505;SDS011;19843;51.040;13.782;2023-04-15T15:59:57;1.90;;;1.80;;
33505;SDS011;19843;51.040;13.782;2023-04-15T16:02:37;1.88;;;1.77;;
33505;SDS011;19843;51.040;13.782;2023-04-15T16:05:24;2.97;;;1.50;;
33505;SDS011;19843;51.040;13.782;2023-04-15T16:07:52;1.75;;;1.65;;
33505;SDS011;19843;51.040;13.782;2023-04-15T16:10:22;1.70;;;1.60;;
33505;SDS011;19843;51.040;13.782;2023-04-15T16:12:50;2.10;;;1.75;;
33505;SDS011;19843;51.040;13.782;2023-04-15T16:15:17;2.38;;;1.95;;
33505;SDS011;19843;51.040;13.782;2023-04-15T16:17:45;1.77;;;1.60;;
33505;SDS011;19843;51.040;13.782;2023-04-15T16:20:12;3.15;;;2.28;;
33505;SDS011;19843;51.040;13.782;2023-04-15T16:22:40;2.25;;;1.90;;
33505;SDS011;19843;51.040;13.782;2023-04-15T16:25:08;1.80;;;1.70;;
33505;SDS011;19843;51.040;13.782;2023-04-15T16:27:37;1.90;;;1.70;;
33505;SDS011;19843;51.040;13.782;2023-04-15T16:30:24;2.60;;;2.03;;
33505;SDS011;19843;51.040;13.782;2023-04-15T16:32:52;1.90;;;1.73;;
33505;SDS011;19843;51.040;13.782;2023-04-15T16:35:19;3.05;;;2.00;;
33505;SDS011;19843;51.040;13.782;2023-04-15T16:37:47;1.85;;;1.75;;
33505;SDS011;19843;51.040;13.782;2023-04-15T16:40:14;1.98;;;1.77;;
33505;SDS011;19843;51.040;13.782;2023-04-15T16:42:43;1.80;;;1.70;;
33505;SDS011;19843;51.040;13.782;2023-04-15T16:45:10;2.28;;;2.08;;
33505;SDS011;19843;51.040;13.782;2023-04-15T16:47:38;2.30;;;2.10;;
33505;SDS011;19843;51.040;13.782;2023-04-15T16:50:07;1.92;;;1.83;;
33505;SDS011;19843;51.040;13.782;2023-04-15T16:52:35;2.13;;;2.00;;
33505;SDS011;19843;51.040;13.782;2023-04-15T16:55:03;2.50;;;1.95;;
33505;SDS011;19843;51.040;13.782;2023-04-15T16:57:31;2.08;;;1.88;;
33505;SDS011;19843;51.040;13.782;2023-04-15T17:00:19;2.75;;;1.85;;
33505;SDS011;19843;51.040;13.782;2023-04-15T17:02:47;1.55;;;1.45;;
33505;SDS011;19843;51.040;13.782;2023-04-15T17:05:14;1.75;;;1.65;;
33505;SDS011;19843;51.040;13.782;2023-04-15T17:07:42;3.33;;;2.15;;
33505;SDS011;19843;51.040;13.782;2023-04-15T17:10:09;2.70;;;1.65;;
33505;SDS011;19843;51.040;13.782;2023-04-15T17:12:39;2.85;;;1.92;;
33505;SDS011;19843;51.040;13.782;2023-04-15T17:15:07;2.45;;;1.83;;
33505;SDS011;19843;51.040;13.782;2023-04-15T17:17:36;2.13;;;1.92;;
33505;SDS011;19843;51.040;13.782;2023-04-15T17:20:05;1.73;;;1.63;;
33505;SDS011;19843;51.040;13.782;2023-04-15T17:22:33;3.58;;;1.70;;
33505;SDS011;19843;51.040;13.782;2023-04-15T17:25:01;3.25;;;1.88;;
33505;SDS011;19843;51.040;13.782;2023-04-15T17:27:31;1.75;;;1.65;;
33505;SDS011;19843;51.040;13.782;2023-04-15T17:29:59;2.05;;;1.65;;
33505;SDS011;19843;51.040;13.782;2023-04-15T17:32:26;1.70;;;1.60;;
33505;SDS011;19843;51.040;13.782;2023-04-15T17:35:01;1.50;;;1.40;;
33505;SDS011;19843;51.040;13.782;2023-04-15T17:37:31;1.73;;;1.50;;
33505;SDS011;19843;51.040;13.782;2023-04-15T17:39:58;1.85;;;1.73;;
33505;SDS011;19843;51.040;13.782;2023-04-15T17:42:26;1.50;;;1.40;;
33505;SDS011;19843;51.040;13.782;2023-04-15T17:44:53;1.58;;;1.48;;
33505;SDS011;19843;51.040;13.782;2023-04-15T17:47:21;1.90;;;1.80;;
33505;SDS011;19843;51.040;13.782;2023-04-15T17:49:48;2.75;;;1.60;;
33505;SDS011;19843;51.040;13.782;2023-04-15T17:52:17;2.05;;;1.88;;
33505;SDS011;19843;51.040;13.782;2023-04-15T17:54:44;1.70;;;1.60;;
33505;SDS011;19843;51.040;13.782;2023-04-15T17:57:12;1.77;;;1.67;;
33505;SDS011;19843;51.040;13.782;2023-04-15T17:59:39;2.70;;;1.77;;
33505;SDS011;19843;51.040;13.782;2023-04-15T18:02:09;4.55;;;2.00;;
33505;SDS011;19843;51.040;13.782;2023-04-15T18:04:37;1.90;;;1.70;;
33505;SDS011;19843;51.040;13.782;2023-04-15T18:07:05;2.35;;;1.80;;
33505;SDS011;19843;51.040;13.782;2023-04-15T18:09:33;2.83;;;2.22;;
33505;SDS011;19843;51.040;13.782;2023-04-15T18:12:01;2.25;;;1.90;;
33505;SDS011;19843;51.040;13.782;2023-04-15T18:14:29;2.33;;;1.85;;
33505;SDS011;19843;51.040;13.782;2023-04-15T18:17:00;3.35;;;1.90;;
33505;SDS011;19843;51.040;13.782;2023-04-15T18:19:28;2.60;;;2.38;;
33505;SDS011;19843;51.040;13.782;2023-04-15T18:21:56;2.22;;;2.08;;
33505;SDS011;19843;51.040;13.782;2023-04-15T18:24:25;2.35;;;2.15;;
33505;SDS011;19843;51.040;13.782;2023-04-15T18:26:54;2.72;;;2.03;;
33505;SDS011;19843;51.040;13.782;2023-04-15T18:29:21;2.10;;;1.90;;
33505;SDS011;19843;51.040;13.782;2023-04-15T18:31:49;2.92;;;2.45;;
33505;SDS011;19843;51.040;13.782;2023-04-15T18:34:16;3.00;;;2.55;;
33505;SDS011;19843;51.040;13.782;2023-04-15T18:36:44;3.50;;;2.58;;
33505;SDS011;19843;51.040;13.782;2023-04-15T18:39:11;3.00;;;2.70;;
33505;SDS011;19843;51.040;13.782;2023-04-15T18:41:39;3.13;;;2.88;;
33505;SDS011;19843;51.040;13.782;2023-04-15T18:44:08;3.50;;;2.97;;
33505;SDS011;19843;51.040;13.782;2023-04-15T18:46:35;3.67;;;3.05;;
33505;SDS011;19843;51.040;13.782;2023-04-15T18:49:02;3.92;;;3.50;;
33505;SDS011;19843;51.040;13.782;2023-04-15T18:51:30;4.75;;;3.40;;
33505;SDS011;19843;51.040;13.782;2023-04-15T18:53:58;4.43;;;4.03;;
33505;SDS011;19843;51.040;13.782;2023-04-15T18:56:25;5.45;;;4.40;;
33505;SDS011;19843;51.040;13.782;2023-04-15T18:58:53;6.70;;;5.35;;
33505;SDS011;19843;51.040;13.782;2023-04-15T19:01:42;6.57;;;5.97;;
33505;SDS011;19843;51.040;13.782;2023-04-15T19:04:09;7.88;;;6.72;;
33505;SDS011;19843;51.040;13.782;2023-04-15T19:06:37;7.28;;;6.32;;
33505;SDS011;19843;51.040;13.782;2023-04-15T19:09:04;6.90;;;6.30;;
33505;SDS011;19843;51.040;13.782;2023-04-15T19:11:32;7.57;;;6.88;;
33505;SDS011;19843;51.040;13.782;2023-04-15T19:14:00;7.63;;;6.93;;
33505;SDS011;19843;51.040;13.782;2023-04-15T19:16:27;7.65;;;6.85;;
33505;SDS011;19843;51.040;13.782;2023-04-15T19:18:56;8.77;;;6.97;;
33505;SDS011;19843;51.040;13.782;2023-04-15T19:21:23;7.38;;;6.68;;
33505;SDS011;19843;51.040;13.782;2023-04-15T19:23:51;7.13;;;6.43;;
33505;SDS011;19843;51.040;13.782;2023-04-15T19:26:18;10.02;;;7.70;;
33505;SDS011;19843;51.040;13.782;2023-04-15T19:28:46;7.88;;;7.07;;
33505;SDS011;19843;51.040;13.782;2023-04-15T19:31:13;7.75;;;7.05;;
33505;SDS011;19843;51.040;13.782;2023-04-15T19:33:41;9.27;;;7.45;;
33505;SDS011;19843;51.040;13.782;2023-04-15T19:36:09;9.13;;;7.07;;
33505;SDS011;19843;51.040;13.782;2023-04-15T19:38:37;9.95;;;7.90;;
33505;SDS011;19843;51.040;13.782;2023-04-15T19:41:04;8.93;;;7.80;;
33505;SDS011;19843;51.040;13.782;2023-04-15T19:43:32;8.07;;;7.28;;
33505;SDS011;19843;51.040;13.782;2023-04-15T19:45:59;9.15;;;8.23;;
33505;SDS011;19843;51.040;13.782;2023-04-15T19:48:27;9.25;;;8.25;;
33505;SDS011;19843;51.040;13.782;2023-04-15T19:50:55;9.25;;;7.97;;
33505;SDS011;19843;51.040;13.782;2023-04-15T19:53:24;11.50;;;9.85;;
33505;SDS011;19843;51.040;13.782;2023-04-15T19:55:51;10.80;;;9.70;;
33505;SDS011;19843;51.040;13.782;2023-04-15T19:58:20;12.95;;;9.70;;
33505;SDS011;19843;51.040;13.782;2023-04-15T20:00:47;10.15;;;9.15;;
33505;SDS011;19843;51.040;13.782;2023-04-15T20:03:15;10.32;;;9.15;;
33505;SDS011;19843;51.040;13.782;2023-04-15T20:05:44;10.57;;;9.27;;
33505;SDS011;19843;51.040;13.782;2023-04-15T20:08:11;10.30;;;9.00;;
33505;SDS011;19843;51.040;13.782;2023-04-15T20:10:40;9.80;;;8.80;;
33505;SDS011;19843;51.040;13.782;2023-04-15T20:13:07;8.85;;;7.93;;
33505;SDS011;19843;51.040;13.782;2023-04-15T20:15:35;9.13;;;8.23;;
33505;SDS011;19843;51.040;13.782;2023-04-15T20:18:02;11.18;;;9.05;;
33505;SDS011;19843;51.040;13.782;2023-04-15T20:20:30;10.52;;;9.43;;
33505;SDS011;19843;51.040;13.782;2023-04-15T20:23:00;9.60;;;8.18;;
33505;SDS011;19843;51.040;13.782;2023-04-15T20:25:27;8.73;;;7.82;;
33505;SDS011;19843;51.040;13.782;2023-04-15T20:27:56;9.45;;;8.40;;
33505;SDS011;19843;51.040;13.782;2023-04-15T20:30:26;10.82;;;8.55;;
33505;SDS011;19843;51.040;13.782;2023-04-15T20:32:54;10.25;;;9.18;;
33505;SDS011;19843;51.040;13.782;2023-04-15T20:35:21;9.95;;;8.90;;
33505;SDS011;19843;51.040;13.782;2023-04-15T20:37:53;10.07;;;9.07;;
33505;SDS011;19843;51.040;13.782;2023-04-15T20:40:20;9.63;;;8.63;;
33505;SDS011;19843;51.040;13.782;2023-04-15T20:42:48;12.63;;;10.48;;
33505;SDS011;19843;51.040;13.782;2023-04-15T20:45:17;9.88;;;8.90;;
33505;SDS011;19843;51.040;13.782;2023-04-15T20:47:44;11.13;;;9.00;;
33505;SDS011;19843;51.040;13.782;2023-04-15T20:50:12;11.20;;;9.35;;
33505;SDS011;19843;51.040;13.782;2023-04-15T20:52:39;12.45;;;9.93;;
33505;SDS011;19843;51.040;13.782;2023-04-15T20:55:07;10.10;;;9.10;;
33505;SDS011;19843;51.040;13.782;2023-04-15T20:57:34;11.13;;;10.02;;
33505;SDS011;19843;51.040;13.782;2023-04-15T21:00:02;12.30;;;8.50;;
33505;SDS011;19843;51.040;13.782;2023-04-15T21:02:32;9.90;;;9.00;;
33505;SDS011;19843;51.040;13.782;2023-04-15T21:04:59;10.93;;;9.82;;
33505;SDS011;19843;51.040;13.782;2023-04-15T21:07:27;11.82;;;10.57;;
33505;SDS011;19843;51.040;13.782;2023-04-15T21:09:54;12.70;;;11.52;;
33505;SDS011;19843;51.040;13.782;2023-04-15T21:12:22;12.80;;;11.48;;
33505;SDS011;19843;51.040;13.782;2023-04-15T21:14:49;13.07;;;10.88;;
33505;SDS011;19843;51.040;13.782;2023-04-15T21:17:16;11.30;;;9.65;;
33505;SDS011;19843;51.040;13.782;2023-04-15T21:19:45;10.68;;;9.63;;
33505;SDS011;19843;51.040;13.782;2023-04-15T21:22:13;12.98;;;11.00;;
33505;SDS011;19843;51.040;13.782;2023-04-15T21:24:40;11.90;;;10.02;;
33505;SDS011;19843;51.040;13.782;2023-04-15T21:27:08;12.88;;;11.15;;
33505;SDS011;19843;51.040;13.782;2023-04-15T21:29:35;15.48;;;10.52;;
33505;SDS011;19843;51.040;13.782;2023-04-15T21:32:05;11.57;;;9.98;;
33505;SDS011;19843;51.040;13.782;2023-04-15T21:34:32;11.25;;;9.95;;
33505;SDS011;19843;51.040;13.782;2023-04-15T21:37:01;13.18;;;11.40;;
33505;SDS011;19843;51.040;13.782;2023-04-15T21:39:29;12.25;;;11.05;;
33505;SDS011;19843;51.040;13.782;2023-04-15T21:41:56;11.02;;;9.90;;
33505;SDS011;19843;51.040;13.782;2023-04-15T21:44:24;12.00;;;10.05;;
33505;SDS011;19843;51.040;13.782;2023-04-15T21:46:51;11.93;;;10.73;;
33505;SDS011;19843;51.040;13.782;2023-04-15T21:49:19;11.73;;;10.50;;
33505;SDS011;19843;51.040;13.782;2023-04-15T21:51:49;12.05;;;10.65;;
33505;SDS011;19843;51.040;13.782;2023-04-15T21:54:18;11.60;;;10.50;;
33505;SDS011;19843;51.040;13.782;2023-04-15T21:56:47;12.38;;;11.15;;
33505;SDS011;19843;51.040;13.782;2023-04-15T21:59:15;12.82;;;11.52;;
33505;SDS011;19843;51.040;13.782;2023-04-15T22:01:43;12.13;;;10.90;;
33505;SDS011;19843;51.040;13.782;2023-04-15T22:04:10;11.35;;;10.10;;
33505;SDS011;19843;51.040;13.782;2023-04-15T22:06:38;11.23;;;10.15;;
33505;SDS011;19843;51.040;13.782;2023-04-15T22:09:05;11.95;;;10.65;;
33505;SDS011;19843;51.040;13.782;2023-04-15T22:11:34;12.18;;;10.80;;
33505;SDS011;19843;51.040;13.782;2023-04-15T22:14:02;13.20;;;10.50;;
33505;SDS011;19843;51.040;13.782;2023-04-15T22:16:30;11.20;;;10.10;;
33505;SDS011;19843;51.040;13.782;2023-04-15T22:18:57;12.13;;;10.85;;
33505;SDS011;19843;51.040;13.782;2023-04-15T22:21:25;12.55;;;11.25;;
33505;SDS011;19843;51.040;13.782;2023-04-15T22:23:52;12.07;;;10.88;;
33505;SDS011;19843;51.040;13.782;2023-04-15T22:26:41;12.43;;;11.18;;
33505;SDS011;19843;51.040;13.782;2023-04-15T22:29:09;13.13;;;11.82;;
33505;SDS011;19843;51.040;13.782;2023-04-15T22:31:36;13.07;;;11.77;;
33505;SDS011;19843;51.040;13.782;2023-04-15T22:34:04;13.32;;;11.93;;
33505;SDS011;19843;51.040;13.782;2023-04-15T22:36:31;13.35;;;11.90;;
33505;SDS011;19843;51.040;13.782;2023-04-15T22:38:59;14.35;;;13.05;;
33505;SDS011;19843;51.040;13.782;2023-04-15T22:41:26;12.85;;;11.60;;
33505;SDS011;19843;51.040;13.782;2023-04-15T22:43:55;13.75;;;12.45;;
33505;SDS011;19843;51.040;13.782;2023-04-15T22:46:22;14.10;;;12.45;;
33505;SDS011;19843;51.040;13.782;2023-04-15T22:48:50;14.57;;;12.20;;
33505;SDS011;19843;51.040;13.782;2023-04-15T22:51:22;14.93;;;13.35;;
33505;SDS011;19843;51.040;13.782;2023-04-15T22:53:52;15.27;;;13.60;;
33505;SDS011;19843;51.040;13.782;2023-04-15T22:56:19;14.73;;;13.27;;
33505;SDS011;19843;51.040;13.782;2023-04-15T22:58:48;16.50;;;14.23;;
33505;SDS011;19843;51.040;13.782;2023-04-15T23:01:17;15.85;;;14.35;;
33505;SDS011;19843;51.040;13.782;2023-04-15T23:03:46;16.42;;;14.73;;
33505;SDS011;19843;51.040;13.782;2023-04-15T23:06:30;17.10;;;15.18;;
33505;SDS011;19843;51.040;13.782;2023-04-15T23:08:57;15.82;;;14.05;;
33505;SDS011;19843;51.040;13.782;2023-04-15T23:11:25;15.02;;;13.57;;
33505;SDS011;19843;51.040;13.782;2023-04-15T23:13:52;16.10;;;14.50;;
33505;SDS011;19843;51.040;13.782;2023-04-15T23:16:21;15.13;;;13.73;;
33505;SDS011;19843;51.040;13.782;2023-04-15T23:18:48;15.00;;;13.50;;
33505;SDS011;19843;51.040;13.782;2023-04-15T23:21:16;15.63;;;14.02;;
33505;SDS011;19843;51.040;13.782;2023-04-15T23:23:43;14.93;;;13.30;;
33505;SDS011;19843;51.040;13.782;2023-04-15T23:26:11;14.18;;;12.80;;
33505;SDS011;19843;51.040;13.782;2023-04-15T23:28:38;14.38;;;12.98;;
33505;SDS011;19843;51.040;13.782;2023-04-15T23:31:06;13.60;;;12.23;;
33505;SDS011;19843;51.040;13.782;2023-04-15T23:33:35;13.25;;;11.95;;
33505;SDS011;19843;51.040;13.782;2023-04-15T23:36:03;14.15;;;12.75;;
33505;SDS011;19843;51.040;13.782;2023-04-15T23:38:31;13.68;;;12.38;;
33505;SDS011;19843;51.040;13.782;2023-04-15T23:40:58;14.05;;;12.65;;
33505;SDS011;19843;51.040;13.782;2023-04-15T23:43:26;12.90;;;11.70;;
33505;SDS011;19843;51.040;13.782;2023-04-15T23:45:53;12.93;;;11.68;;
33505;SDS011;19843;51.040;13.782;2023-04-15T23:48:21;13.98;;;12.48;;
33505;SDS011;19843;51.040;13.782;2023-04-15T23:50:50;13.90;;;12.50;;
33505;SDS011;19843;51.040;13.782;2023-04-15T23:53:17;14.13;;;12.80;;
33505;SDS011;19843;51.040;13.782;2023-04-15T23:55:44;14.18;;;12.70;;
33505;SDS011;19843;51.040;13.782;2023-04-15T23:58:12;14.25;;;12.65;;
